createdAt,value
2024-02-24T00:00:52.431Z,6.92
2024-02-24T00:03:22.001Z,6.90
2024-02-24T00:05:53.645Z,6.87
2024-02-24T00:08:20.826Z,6.87
2024-02-24T00:10:48.245Z,6.84
2024-02-24T00:13:15.342Z,6.79
2024-02-24T00:15:42.253Z,6.81
2024-02-24T00:18:10.841Z,6.75
2024-02-24T00:20:38.050Z,6.74
2024-02-24T00:23:05.157Z,6.77
2024-02-24T00:25:32.247Z,6.78
2024-02-24T00:27:59.185Z,6.75
2024-02-24T00:30:26.279Z,6.69
2024-02-24T00:32:53.583Z,6.69
2024-02-24T00:35:20.694Z,6.65
2024-02-24T00:37:47.889Z,6.63
2024-02-24T00:40:15.162Z,6.64
2024-02-24T00:42:42.138Z,6.60
2024-02-24T00:45:09.334Z,6.58
2024-02-24T00:47:36.475Z,6.53
2024-02-24T00:50:03.807Z,6.55
2024-02-24T00:52:32.821Z,6.48
2024-02-24T00:55:01.095Z,6.50
2024-02-24T00:57:28.137Z,6.48
2024-02-24T00:59:55.106Z,6.49
2024-02-24T01:02:22.067Z,6.44
2024-02-24T01:04:50.317Z,6.47
2024-02-24T01:07:17.464Z,6.44
2024-02-24T01:09:44.478Z,6.35
2024-02-24T01:12:12.210Z,6.37
2024-02-24T01:14:39.370Z,6.38
2024-02-24T01:17:06.608Z,6.40
2024-02-24T01:19:33.688Z,6.40
2024-02-24T01:22:01.107Z,6.43
2024-02-24T01:24:28.077Z,6.37
2024-02-24T01:26:54.928Z,6.38
2024-02-24T01:29:22.144Z,6.40
2024-02-24T01:31:49.126Z,6.43
2024-02-24T01:34:16.125Z,6.41
2024-02-24T01:36:43.128Z,6.40
2024-02-24T01:39:10.389Z,6.37
2024-02-24T01:41:37.482Z,6.39
2024-02-24T01:44:04.490Z,6.40
2024-02-24T01:46:32.883Z,6.41
2024-02-24T01:49:00.008Z,6.39
2024-02-24T01:51:27.142Z,6.39
2024-02-24T01:53:54.545Z,6.37
2024-02-24T01:56:23.472Z,6.35
2024-02-24T01:58:50.547Z,6.31
2024-02-24T02:01:18.604Z,6.30
2024-02-24T02:03:45.762Z,6.23
2024-02-24T02:06:13.023Z,6.29
2024-02-24T02:08:40.102Z,6.22
2024-02-24T02:11:10.602Z,6.24
2024-02-24T02:13:38.312Z,6.18
2024-02-24T02:16:05.623Z,6.15
2024-02-24T02:18:35.464Z,6.17
2024-02-24T02:21:03.557Z,6.16
2024-02-24T02:23:30.434Z,6.15
2024-02-24T02:25:58.166Z,6.14
2024-02-24T02:28:25.406Z,6.13
2024-02-24T02:30:52.714Z,6.12
2024-02-24T02:33:19.998Z,6.10
2024-02-24T02:35:47.313Z,6.09
2024-02-24T02:38:14.516Z,6.05
2024-02-24T02:40:41.808Z,6.04
2024-02-24T02:43:08.786Z,5.99
2024-02-24T02:45:35.780Z,6.02
2024-02-24T02:48:02.972Z,6.03
2024-02-24T02:50:32.888Z,6.02
2024-02-24T02:52:59.951Z,6.01
2024-02-24T02:55:27.786Z,6.00
2024-02-24T02:57:54.757Z,5.96
2024-02-24T03:00:21.785Z,5.94
2024-02-24T03:02:49.189Z,5.97
2024-02-24T03:05:16.254Z,6.00
2024-02-24T03:07:43.161Z,5.99
2024-02-24T03:10:10.291Z,5.97
2024-02-24T03:12:37.247Z,5.95
2024-02-24T03:15:04.526Z,5.88
2024-02-24T03:17:31.510Z,5.87
2024-02-24T03:19:58.457Z,5.89
2024-02-24T03:22:25.439Z,5.84
2024-02-24T03:24:52.471Z,5.85
2024-02-24T03:27:19.327Z,5.87
2024-02-24T03:29:46.326Z,5.86
2024-02-24T03:32:13.321Z,5.81
2024-02-24T03:34:40.898Z,5.82
2024-02-24T03:37:07.894Z,5.83
2024-02-24T03:39:34.889Z,5.79
2024-02-24T03:42:01.934Z,5.78
2024-02-24T03:44:28.863Z,5.76
2024-02-24T03:46:55.810Z,5.79
2024-02-24T03:49:22.932Z,5.85
2024-02-24T03:51:49.862Z,5.85
2024-02-24T03:54:16.759Z,5.84
2024-02-24T03:56:44.577Z,5.80
2024-02-24T03:59:11.787Z,5.77
2024-02-24T04:01:41.343Z,5.77
2024-02-24T04:04:08.403Z,5.77
2024-02-24T04:06:35.557Z,5.78
2024-02-24T04:09:02.654Z,5.78
2024-02-24T04:11:30.534Z,5.73
2024-02-24T04:13:57.566Z,5.68
2024-02-24T04:16:24.460Z,5.68
2024-02-24T04:18:51.407Z,5.71
2024-02-24T04:21:20.629Z,5.68
2024-02-24T04:23:47.579Z,5.67
2024-02-24T04:26:14.611Z,5.68
2024-02-24T04:28:42.390Z,5.69
2024-02-24T04:31:09.405Z,5.66
2024-02-24T04:33:36.385Z,5.66
2024-02-24T04:36:05.368Z,5.62
2024-02-24T04:38:32.351Z,5.65
2024-02-24T04:40:59.457Z,5.66
2024-02-24T04:43:26.478Z,5.61
2024-02-24T04:45:53.572Z,5.61
2024-02-24T04:48:20.637Z,5.60
2024-02-24T04:50:47.731Z,5.57
2024-02-24T04:53:14.688Z,5.47
2024-02-24T04:55:41.529Z,5.47
2024-02-24T04:58:08.525Z,5.48
2024-02-24T05:00:36.009Z,5.54
2024-02-24T05:03:02.925Z,5.53
2024-02-24T05:05:29.985Z,5.50
2024-02-24T05:07:56.985Z,5.47
2024-02-24T05:10:24.044Z,5.41
2024-02-24T05:12:50.897Z,5.41
2024-02-24T05:15:18.949Z,5.37
2024-02-24T05:17:46.662Z,5.37
2024-02-24T05:20:15.122Z,5.36
2024-02-24T05:22:42.413Z,5.31
2024-02-24T05:25:11.012Z,5.28
2024-02-24T05:27:38.044Z,5.31
2024-02-24T05:30:05.650Z,5.32
2024-02-24T05:32:32.682Z,5.25
2024-02-24T05:34:59.763Z,5.20
2024-02-24T05:37:26.641Z,5.16
2024-02-24T05:39:53.895Z,5.13
2024-02-24T05:42:20.885Z,5.15
2024-02-24T05:44:47.897Z,5.16
2024-02-24T05:47:15.105Z,5.15
2024-02-24T05:49:42.491Z,5.16
2024-02-24T05:52:09.510Z,5.17
2024-02-24T05:54:39.670Z,5.22
2024-02-24T05:57:06.510Z,5.21
2024-02-24T05:59:33.459Z,5.16
2024-02-24T06:02:00.689Z,5.18
2024-02-24T06:04:27.657Z,5.18
2024-02-24T06:06:54.618Z,5.17
2024-02-24T06:09:21.580Z,5.21
2024-02-24T06:11:48.633Z,5.17
2024-02-24T06:14:15.755Z,5.13
2024-02-24T06:16:43.110Z,5.15
2024-02-24T06:19:10.125Z,5.13
2024-02-24T06:21:37.141Z,5.14
2024-02-24T06:24:04.376Z,5.15
2024-02-24T06:26:31.560Z,5.15
2024-02-24T06:28:58.474Z,5.18
2024-02-24T06:31:25.414Z,5.16
2024-02-24T06:33:52.501Z,5.18
2024-02-24T06:36:19.499Z,5.23
2024-02-24T06:38:46.689Z,5.23
2024-02-24T06:41:13.919Z,5.21
2024-02-24T06:43:41.154Z,5.19
2024-02-24T06:46:08.662Z,5.23
2024-02-24T06:48:35.555Z,5.20
2024-02-24T06:51:02.553Z,5.24
2024-02-24T06:53:29.443Z,5.22
2024-02-24T06:55:56.377Z,5.18
2024-02-24T06:58:23.254Z,5.18
2024-02-24T07:00:50.260Z,5.18
2024-02-24T07:03:17.333Z,5.16
2024-02-24T07:05:44.517Z,5.19
2024-02-24T07:08:11.520Z,5.17
2024-02-24T07:10:38.570Z,5.21
2024-02-24T07:13:05.491Z,5.20
2024-02-24T07:15:32.561Z,5.24
2024-02-24T07:17:59.640Z,5.32
2024-02-24T07:20:26.659Z,5.33
2024-02-24T07:22:53.566Z,5.30
2024-02-24T07:25:20.418Z,5.31
2024-02-24T07:27:47.434Z,5.32
2024-02-24T07:30:14.814Z,5.35
2024-02-24T07:32:43.767Z,5.37
2024-02-24T07:35:11.694Z,5.43
2024-02-24T07:37:38.901Z,5.44
2024-02-24T07:40:06.475Z,5.50
2024-02-24T07:42:33.423Z,5.45
2024-02-24T07:45:00.489Z,5.42
2024-02-24T07:47:27.543Z,5.43
2024-02-24T07:49:54.699Z,5.47
2024-02-24T07:52:21.802Z,5.48
2024-02-24T07:54:48.805Z,5.52
2024-02-24T07:57:15.764Z,5.63
2024-02-24T07:59:42.922Z,5.73
2024-02-24T08:02:09.971Z,5.83
2024-02-24T08:04:36.970Z,5.87
2024-02-24T08:07:04.288Z,6.03
2024-02-24T08:09:31.329Z,6.15
2024-02-24T08:11:58.502Z,6.24
2024-02-24T08:14:25.594Z,6.33
2024-02-24T08:16:52.658Z,6.44
2024-02-24T08:19:19.923Z,6.58
2024-02-24T08:21:46.982Z,6.70
2024-02-24T08:24:17.869Z,6.64
2024-02-24T08:26:46.172Z,6.66
2024-02-24T08:29:13.370Z,6.73
2024-02-24T08:31:40.871Z,6.79
2024-02-24T08:34:08.073Z,6.79
2024-02-24T08:36:35.783Z,6.82
2024-02-24T08:39:03.440Z,6.86
2024-02-24T08:41:34.927Z,6.93
2024-02-24T08:44:03.098Z,7.02
2024-02-24T08:46:30.281Z,7.07
2024-02-24T08:48:58.091Z,7.17
2024-02-24T08:51:26.774Z,7.20
2024-02-24T08:53:54.156Z,7.21
2024-02-24T08:56:22.121Z,7.24
2024-02-24T08:58:49.982Z,7.28
2024-02-24T09:01:18.281Z,7.32
2024-02-24T09:03:45.742Z,7.45
2024-02-24T09:06:13.068Z,7.53
2024-02-24T09:08:40.247Z,7.63
2024-02-24T09:11:07.624Z,7.64
2024-02-24T09:13:34.778Z,7.71
2024-02-24T09:16:05.870Z,7.85
2024-02-24T09:18:33.414Z,7.91
2024-02-24T09:21:00.946Z,7.93
2024-02-24T09:23:28.061Z,7.94
2024-02-24T09:25:55.224Z,7.99
2024-02-24T09:28:22.410Z,7.99
2024-02-24T09:30:49.582Z,7.94
2024-02-24T09:33:17.256Z,7.87
2024-02-24T09:35:44.568Z,7.88
2024-02-24T09:38:11.750Z,7.90
2024-02-24T09:40:38.891Z,7.93
2024-02-24T09:43:06.684Z,7.97
2024-02-24T09:45:36.179Z,8.02
2024-02-24T09:48:04.690Z,8.04
2024-02-24T09:50:32.089Z,8.09
2024-02-24T09:52:59.673Z,8.14
2024-02-24T09:55:26.893Z,8.19
2024-02-24T09:57:56.972Z,8.29
2024-02-24T10:00:25.414Z,8.40
2024-02-24T10:02:55.701Z,8.58
2024-02-24T10:05:26.788Z,8.62
2024-02-24T10:07:56.016Z,8.56
2024-02-24T10:10:27.836Z,8.62
2024-02-24T10:13:04.844Z,8.69
2024-02-24T10:15:33.968Z,8.77
2024-02-24T10:18:02.445Z,8.84
2024-02-24T10:20:30.209Z,8.90
2024-02-24T10:22:58.471Z,9.01
2024-02-24T10:25:25.780Z,9.13
2024-02-24T10:27:53.446Z,9.20
2024-02-24T10:30:24.290Z,9.24
2024-02-24T10:32:54.148Z,9.30
2024-02-24T10:35:21.621Z,9.31
2024-02-24T10:38:04.016Z,9.34
2024-02-24T10:40:39.105Z,9.31
2024-02-24T10:43:06.664Z,9.30
2024-02-24T10:45:34.218Z,9.30
2024-02-24T10:48:01.791Z,9.26
2024-02-24T10:50:29.529Z,9.31
2024-02-24T10:52:58.860Z,9.37
2024-02-24T10:55:26.886Z,9.44
2024-02-24T10:57:54.857Z,9.45
2024-02-24T11:00:31.711Z,9.52
2024-02-24T11:03:00.741Z,9.52
2024-02-24T11:05:29.840Z,9.55
2024-02-24T11:07:57.465Z,9.53
2024-02-24T11:10:32.262Z,9.53
2024-02-24T11:13:01.727Z,9.52
2024-02-24T11:15:29.247Z,9.54
2024-02-24T11:18:00.039Z,9.57
2024-02-24T11:20:39.310Z,9.64
2024-02-24T11:23:16.153Z,9.59
2024-02-24T11:25:43.601Z,9.56
2024-02-24T11:28:11.186Z,9.59
2024-02-24T11:30:39.984Z,9.47
2024-02-24T11:33:17.166Z,9.50
2024-02-24T11:35:44.933Z,9.51
2024-02-24T11:38:12.264Z,9.51
2024-02-24T11:40:39.532Z,9.60
2024-02-24T11:43:07.342Z,9.68
2024-02-24T11:45:36.897Z,9.71
2024-02-24T11:48:04.519Z,9.77
2024-02-24T11:50:32.143Z,9.82
2024-02-24T11:52:59.360Z,9.84
2024-02-24T11:55:26.505Z,9.91
2024-02-24T11:57:53.899Z,9.97
2024-02-24T12:00:21.546Z,10.07
2024-02-24T12:02:49.697Z,10.12
2024-02-24T12:05:17.648Z,10.15
2024-02-24T12:07:45.503Z,10.30
2024-02-24T12:10:13.097Z,10.39
2024-02-24T12:12:41.259Z,10.47
2024-02-24T12:15:08.918Z,10.48
2024-02-24T12:17:36.706Z,10.42
2024-02-24T12:20:04.447Z,10.46
2024-02-24T12:22:31.888Z,10.50
2024-02-24T12:25:12.863Z,10.47
2024-02-24T12:27:40.143Z,10.56
2024-02-24T12:30:08.396Z,10.60
2024-02-24T12:32:36.155Z,10.56
2024-02-24T12:35:04.987Z,10.62
2024-02-24T12:37:34.216Z,10.71
2024-02-24T12:40:02.205Z,10.77
2024-02-24T12:42:29.662Z,10.85
2024-02-24T12:44:56.966Z,10.91
2024-02-24T12:47:24.346Z,10.95
2024-02-24T12:49:51.836Z,11.00
2024-02-24T12:52:19.293Z,10.96
2024-02-24T12:54:46.600Z,11.03
2024-02-24T12:57:13.909Z,11.02
2024-02-24T12:59:41.183Z,11.15
2024-02-24T13:02:08.786Z,11.21
2024-02-24T13:04:35.937Z,11.26
2024-02-24T13:07:03.340Z,11.35
2024-02-24T13:09:30.532Z,11.43
2024-02-24T13:11:58.456Z,11.39
2024-02-24T13:14:25.975Z,11.39
2024-02-24T13:16:53.329Z,11.39
2024-02-24T13:19:20.607Z,11.37
2024-02-24T13:21:47.902Z,11.41
2024-02-24T13:24:15.430Z,11.44
2024-02-24T13:26:43.038Z,11.48
2024-02-24T13:29:10.255Z,11.49
2024-02-24T13:31:38.455Z,11.55
2024-02-24T13:34:05.974Z,11.58
2024-02-24T13:36:33.427Z,11.63
2024-02-24T13:39:00.838Z,11.67
2024-02-24T13:41:28.746Z,11.69
2024-02-24T13:43:56.286Z,11.64
2024-02-24T13:46:23.622Z,11.63
2024-02-24T13:49:01.880Z,11.58
2024-02-24T13:51:29.250Z,11.63
2024-02-24T13:53:56.480Z,11.65
2024-02-24T13:56:26.154Z,11.60
2024-02-24T13:58:58.914Z,11.62
2024-02-24T14:01:26.299Z,11.57
2024-02-24T14:03:53.534Z,11.50
2024-02-24T14:06:24.470Z,11.54
2024-02-24T14:08:52.496Z,11.55
2024-02-24T14:11:19.914Z,11.53
2024-02-24T14:13:46.930Z,11.48
2024-02-24T14:16:14.087Z,11.40
2024-02-24T14:18:41.840Z,11.46
2024-02-24T14:21:09.307Z,11.49
2024-02-24T14:23:38.918Z,11.43
2024-02-24T14:26:06.629Z,11.37
2024-02-24T14:28:33.817Z,11.32
2024-02-24T14:31:00.986Z,11.32
2024-02-24T14:33:28.728Z,11.30
2024-02-24T14:35:56.186Z,11.29
2024-02-24T14:38:23.558Z,11.27
2024-02-24T14:40:53.694Z,11.25
2024-02-24T14:43:20.980Z,11.27
2024-02-24T14:45:49.080Z,11.28
2024-02-24T14:48:16.550Z,11.22
2024-02-24T14:50:44.787Z,11.21
2024-02-24T14:53:12.148Z,11.24
2024-02-24T14:55:39.253Z,11.25
2024-02-24T14:58:07.139Z,11.23
2024-02-24T15:00:34.544Z,11.25
2024-02-24T15:03:09.611Z,11.19
2024-02-24T15:05:38.854Z,11.22
2024-02-24T15:08:06.711Z,11.26
2024-02-24T15:10:33.823Z,11.24
2024-02-24T15:13:00.989Z,11.26
2024-02-24T15:15:28.208Z,11.34
2024-02-24T15:17:56.575Z,11.36
2024-02-24T15:20:23.870Z,11.31
2024-02-24T15:22:52.618Z,11.27
2024-02-24T15:25:20.254Z,11.27
2024-02-24T15:27:47.851Z,11.24
2024-02-24T15:30:15.432Z,11.21
2024-02-24T15:32:42.841Z,11.16
2024-02-24T15:35:10.238Z,11.15
2024-02-24T15:37:37.638Z,11.09
2024-02-24T15:40:09.404Z,11.06
2024-02-24T15:42:36.893Z,11.02
2024-02-24T15:45:04.813Z,11.01
2024-02-24T15:47:32.239Z,10.93
2024-02-24T15:49:59.518Z,10.94
2024-02-24T15:52:27.008Z,10.96
2024-02-24T15:54:54.298Z,10.97
2024-02-24T15:57:21.773Z,11.02
2024-02-24T15:59:49.211Z,11.00
2024-02-24T16:02:16.636Z,10.89
2024-02-24T16:04:44.165Z,10.88
2024-02-24T16:07:11.669Z,10.86
2024-02-24T16:09:39.547Z,10.83
2024-02-24T16:12:07.759Z,10.87
2024-02-24T16:14:35.043Z,10.86
2024-02-24T16:17:05.097Z,10.91
2024-02-24T16:19:32.765Z,10.92
2024-02-24T16:22:01.201Z,10.93
2024-02-24T16:24:30.785Z,10.92
2024-02-24T16:26:59.458Z,10.89
2024-02-24T16:29:27.361Z,10.89
2024-02-24T16:31:54.967Z,10.89
2024-02-24T16:34:22.970Z,10.87
2024-02-24T16:36:51.065Z,10.91
2024-02-24T16:39:18.742Z,10.83
2024-02-24T16:41:46.361Z,10.80
2024-02-24T16:44:14.768Z,10.75
2024-02-24T16:46:42.897Z,10.72
2024-02-24T16:49:10.770Z,10.74
2024-02-24T16:51:38.309Z,10.70
2024-02-24T16:54:05.589Z,10.67
2024-02-24T16:56:36.400Z,10.68
2024-02-24T16:59:04.485Z,10.66
2024-02-24T17:01:32.248Z,10.66
2024-02-24T17:03:59.847Z,10.63
2024-02-24T17:06:30.395Z,10.61
2024-02-24T17:08:58.027Z,10.60
2024-02-24T17:11:26.357Z,10.53
2024-02-24T17:13:53.903Z,10.51
2024-02-24T17:16:21.437Z,10.48
2024-02-24T17:18:49.017Z,10.42
2024-02-24T17:21:16.610Z,10.35
2024-02-24T17:23:44.166Z,10.33
2024-02-24T17:26:11.587Z,10.27
2024-02-24T17:28:38.850Z,10.22
2024-02-24T17:31:06.105Z,10.18
2024-02-24T17:33:33.409Z,10.16
2024-02-24T17:36:01.097Z,10.08
2024-02-24T17:38:29.586Z,10.07
2024-02-24T17:40:59.263Z,10.02
2024-02-24T17:43:28.487Z,9.99
2024-02-24T17:45:55.966Z,9.90
2024-02-24T17:48:24.220Z,9.87
2024-02-24T17:50:51.975Z,9.81
2024-02-24T17:53:20.239Z,9.78
2024-02-24T17:55:47.986Z,9.78
2024-02-24T17:58:15.817Z,9.79
2024-02-24T18:00:43.930Z,9.76
2024-02-24T18:03:14.364Z,9.75
2024-02-24T18:05:42.314Z,9.73
2024-02-24T18:08:09.667Z,9.70
2024-02-24T18:10:36.982Z,9.69
2024-02-24T18:13:04.406Z,9.66
2024-02-24T18:15:31.821Z,9.65
2024-02-24T18:17:59.171Z,9.64
2024-02-24T18:20:26.924Z,9.61
2024-02-24T18:22:54.272Z,9.60
2024-02-24T18:25:21.593Z,9.62
2024-02-24T18:27:49.084Z,9.63
2024-02-24T18:30:16.660Z,9.63
2024-02-24T18:32:44.486Z,9.65
2024-02-24T18:35:12.139Z,9.69
2024-02-24T18:37:39.412Z,9.67
2024-02-24T18:40:07.330Z,9.67
2024-02-24T18:42:34.780Z,9.64
2024-02-24T18:45:02.254Z,9.63
2024-02-24T18:47:30.014Z,9.62
2024-02-24T18:49:58.861Z,9.59
2024-02-24T18:52:26.576Z,9.58
2024-02-24T18:54:54.047Z,9.56
2024-02-24T18:57:21.390Z,9.53
2024-02-24T18:59:50.511Z,9.50
2024-02-24T19:02:18.413Z,9.49
2024-02-24T19:04:48.681Z,9.48
2024-02-24T19:07:17.199Z,9.46
2024-02-24T19:09:45.917Z,9.45
2024-02-24T19:12:14.036Z,9.44
2024-02-24T19:14:48.829Z,9.42
2024-02-24T19:17:22.645Z,9.33
2024-02-24T19:19:50.546Z,9.28
2024-02-24T19:22:17.980Z,9.22
2024-02-24T19:24:45.383Z,9.22
2024-02-24T19:27:12.513Z,9.17
2024-02-24T19:29:45.459Z,9.12
2024-02-24T19:32:13.621Z,9.11
2024-02-24T19:34:40.876Z,9.11
2024-02-24T19:37:10.974Z,9.10
2024-02-24T19:39:38.672Z,9.12
2024-02-24T19:42:06.424Z,9.09
2024-02-24T19:44:35.616Z,9.11
2024-02-24T19:47:06.075Z,9.13
2024-02-24T19:49:33.299Z,9.12
2024-02-24T19:52:00.640Z,9.12
2024-02-24T19:54:28.534Z,9.16
2024-02-24T19:56:55.874Z,9.18
2024-02-24T19:59:23.121Z,9.16
2024-02-24T20:01:51.507Z,9.16
2024-02-24T20:04:19.373Z,9.17
2024-02-24T20:06:47.537Z,9.18
2024-02-24T20:09:14.818Z,9.16
2024-02-24T20:11:42.124Z,9.15
2024-02-24T20:14:09.539Z,9.13
2024-02-24T20:16:36.887Z,9.13
2024-02-24T20:19:04.407Z,9.13
2024-02-24T20:21:32.086Z,9.13
2024-02-24T20:23:59.256Z,9.15
2024-02-24T20:26:26.476Z,9.13
2024-02-24T20:28:55.167Z,9.11
2024-02-24T20:31:23.497Z,9.09
2024-02-24T20:33:56.559Z,9.10
2024-02-24T20:36:30.511Z,9.08
2024-02-24T20:39:00.315Z,9.06
2024-02-24T20:41:30.500Z,9.02
2024-02-24T20:43:59.296Z,9.01
2024-02-24T20:46:26.905Z,9.00
2024-02-24T20:48:54.450Z,8.96
2024-02-24T20:51:21.519Z,8.97
2024-02-24T20:53:48.878Z,8.92
2024-02-24T20:56:16.101Z,8.90
2024-02-24T20:58:43.208Z,8.90
2024-02-24T21:01:10.333Z,8.88
2024-02-24T21:03:37.488Z,8.88
2024-02-24T21:06:04.865Z,8.86
2024-02-24T21:08:32.209Z,8.83
2024-02-24T21:10:59.702Z,8.77
2024-02-24T21:13:26.712Z,8.75
2024-02-24T21:15:53.835Z,8.75
2024-02-24T21:18:21.099Z,8.72
2024-02-24T21:20:48.353Z,8.71
2024-02-24T21:23:15.601Z,8.68
2024-02-24T21:25:43.250Z,8.68
2024-02-24T21:28:10.909Z,8.67
2024-02-24T21:30:38.183Z,8.64
2024-02-24T21:33:05.756Z,8.63
2024-02-24T21:35:33.165Z,8.63
2024-02-24T21:38:02.135Z,8.61
2024-02-24T21:40:29.244Z,8.57
2024-02-24T21:42:56.705Z,8.55
2024-02-24T21:45:23.808Z,8.55
2024-02-24T21:47:50.871Z,8.54
2024-02-24T21:50:18.065Z,8.52
2024-02-24T21:52:45.473Z,8.53
2024-02-24T21:55:14.011Z,8.52
2024-02-24T21:57:43.046Z,8.51
2024-02-24T22:00:16.829Z,8.47
2024-02-24T22:02:44.276Z,8.46
2024-02-24T22:05:11.821Z,8.47
2024-02-24T22:07:38.828Z,8.45
2024-02-24T22:10:06.425Z,8.44
2024-02-24T22:12:33.414Z,8.44
2024-02-24T22:15:00.669Z,8.42
2024-02-24T22:17:28.213Z,8.42
2024-02-24T22:19:55.278Z,8.44
2024-02-24T22:22:22.450Z,8.41
2024-02-24T22:24:49.759Z,8.37
2024-02-24T22:27:17.486Z,8.38
2024-02-24T22:29:45.610Z,8.35
2024-02-24T22:32:12.899Z,8.30
2024-02-24T22:34:39.966Z,8.25
2024-02-24T22:37:07.081Z,8.25
2024-02-24T22:39:34.222Z,8.25
2024-02-24T22:42:01.394Z,8.19
2024-02-24T22:44:32.601Z,8.18
2024-02-24T22:46:59.566Z,8.22
2024-02-24T22:49:26.716Z,8.24
2024-02-24T22:51:54.011Z,8.23
2024-02-24T22:54:21.078Z,8.25
2024-02-24T22:56:48.244Z,8.26
2024-02-24T22:59:15.225Z,8.21
2024-02-24T23:01:42.656Z,8.17
2024-02-24T23:04:10.706Z,8.14
2024-02-24T23:06:37.839Z,8.12
2024-02-24T23:09:05.136Z,8.01
2024-02-24T23:11:39.140Z,7.99
2024-02-24T23:14:09.763Z,7.94
2024-02-24T23:16:36.978Z,7.95
2024-02-24T23:19:05.159Z,7.95
2024-02-24T23:21:36.887Z,7.95
2024-02-24T23:24:05.506Z,7.93
2024-02-24T23:26:33.414Z,7.86
2024-02-24T23:29:03.040Z,7.83
2024-02-24T23:31:30.779Z,7.81
2024-02-24T23:33:58.062Z,7.77
2024-02-24T23:36:25.737Z,7.74
2024-02-24T23:38:52.780Z,7.74
2024-02-24T23:41:19.758Z,7.67
2024-02-24T23:43:46.770Z,7.60
2024-02-24T23:46:14.354Z,7.57
2024-02-24T23:48:41.974Z,7.54
2024-02-24T23:51:09.327Z,7.52
2024-02-24T23:53:36.351Z,7.52
2024-02-24T23:56:04.009Z,7.54
2024-02-24T23:58:31.101Z,7.55
